LSZCETSI

Guest
Details From LSZC - Buochs
To ETSI - Ingolstadt Manching
Flight Number -
Tags generated
Created
Modified
Stats Distance 164 nm / 304 km
Max Altitude 19,200 ft / 5,852 m
Waypoints 3
Social Downloads 0
Likes 0
Share VATSIM

Download

Looking for another format? Having issues loading an existing format? Contact us
Advertisement - Login to hide

Notes

Basic altitude profile: - Ascent Rate: 2500ft/min - Ascent Speed: 250kts - Cruise Altitude: 35000ft - Cruise Speed: 420kts - Descent Rate: 1500ft/min - Descent Speed: 250kts Options: - Use NATs: yes - Use PACOTS: yes - Use low airways: yes - Use high airways: yes

Route

LSZC BODAN ETSI

ID Type Via Altitude Latitude Longitude Leg Dist Tot Dist Heading (true) Name
O LSZC APT - 0 ft / 0 m 46.97319˚ 8.39736˚ - 0 nm - Buochs
BODAN FIX - 19,200 ft / 5,852 m 47.58750˚ 9.45139˚ 56 nm 56 nm 49° / 50° -
O ETSI APT - 0 ft / 0 m 48.71509˚ 11.53406˚ 107 nm 164 nm 50° / 52° Ingolstadt Manching

Altitude Profile

Advertisement - Login to hide

Weather


0- 5 10 15 20 25 30 35+ Temperature / ° C

Clouds and Precipitation
Forecast for 2017-12-12 06:00 UTC. Updated 2 hours ago

Ground ~20,000 ft ~40,000 ft Winds

LSZC

Details ICAO LSZC (BXO)
Name Buochs
Region Switzerland
Timezone Europe/Zurich (UTC+1.0)
Stats Elevation 1,475 ft / 450 m (AMSL)
Location 46.973188° 8.397360°
Runways 2
Magnetic Variation 2.305° E

METAR

LSZC 120450Z AUTO 33008KT 9999 SCT039 OVC060 05/00 Q1003

Decode

TAF

Not found

Departure Runways

ID Width Length Bearing (true) Bearing (mag) Surface Threshold Offset Overrun Length
07L 131 ft / 40 m 6,570 ft / 2,002 m 64.09° 61.78° Asphalt 0 ft / 0 m 650 ft / 198 m
07R 131 ft / 40 m 4,827 ft / 1,471 m 64.00° 61.69° Asphalt 0 ft / 0 m 1,161 ft / 354 m
25L 131 ft / 40 m 4,827 ft / 1,471 m 244.02° 241.71° Asphalt 0 ft / 0 m 1,161 ft / 354 m
25R 131 ft / 40 m 6,570 ft / 2,002 m 244.11° 241.80° Asphalt 0 ft / 0 m 650 ft / 198 m

ETSI

Details ICAO ETSI
Name Ingolstadt Manching
Region Germany - Military
Timezone Europe/Berlin (UTC+1.0)
Stats Elevation 1,202 ft / 366 m (AMSL)
Location 48.715095° 11.534059°
Runways 2
Magnetic Variation 3.111° E

METAR

ETSI 120420Z 21007KT 9999 FEW030 BKN100 05/02 Q0997 BLU

Decode

TAF

Not found

Destination Runways

ID Width Length Bearing (true) Bearing (mag) Surface Threshold Offset Overrun Length
07L 98 ft / 30 m 7,983 ft / 2,433 m 67.94° 64.83° Concrete 0 ft / 0 m 1,506 ft / 459 m
07R 197 ft / 60 m 9,642 ft / 2,939 m 68.14° 65.03° Asphalt 0 ft / 0 m 1,066 ft / 325 m
25L 197 ft / 60 m 9,642 ft / 2,939 m 248.17° 245.06° Asphalt 0 ft / 0 m 1,066 ft / 325 m
25R 98 ft / 30 m 7,983 ft / 2,433 m 247.97° 244.86° Concrete 602 ft / 183 m 1,050 ft / 320 m

Approach Navaids

Runway Type Ident Frequency Range Bearing (true) Bearing (mag) Slope Elevation
25L Localiser MG 108.10 MHz 18 nm / 33 km 248.36° 245.25° - 1,209 ft / 369 m (AMSL)
25L Glidescope MG 108.10 MHz 10 nm / 19 km 248.15° 245.04° 3.00° 1,229 ft / 375 m (AMSL)

Popular Alternatives